Thicket Portage, Canada
Current Conditions -  °F | °C
As of 8:00 AM on Thursday 18 Dec 2014 (Local Time) from CYTH Reporting Station
Light Snow Light Snow  
Wind Chill: -13°   Ceiling: 900
Heat Index:   Visibility: 15mi
Dew Point: -6°   Wind: 7mph
Humidity: 78%   Direction: 200°SSW
Pressure: 30.06"   Gusts: NA
Location:  55.32°N, 97.7°W
Report Text: CYTH 181400Z 20006KT 15SM -SN BKN009 M18/M21 A3006 RMK ST7 SLP202
Loading
Personal Weather Stations






























Interactive Weather Map New forecast layout! Learn more

10-Day Weather Forecast

Advertisements
Track Severe Weather on mobile